Time;durP1;ratioP1;P1;durP2;ratioP2;P2;SDS_P1;SDS_P2;PMS_P1;PMS_P2;Temp;Humidity;BMP_temperature;BMP_pressure;BME280_temperature;BME280_humidity;BME280_pressure;Samples;Min_cycle;Max_cycle;Signal;HPM_P1;HPM_P2
2023/11/10 00:00:36;;;;;;;;;1.00;1.00;;;;;11.99;82.38;99378.63;6227061;22;46874;-86
2023/11/10 00:03:03;;;;;;;;;1.00;1.00;;;;;12.01;82.05;99375.94;6229282;22;44724;-86
2023/11/10 00:05:32;;;;;;;;;1.33;1.00;;;;;12.23;82.07;99381.84;6253592;22;44953;-85
2023/11/10 00:07:58;;;;;;;;;1.00;1.00;;;;;12.14;82.21;99379.31;6255652;22;45434;-86
2023/11/10 00:10:27;;;;;;;;;1.00;1.00;;;;;11.97;81.98;99377.75;6254523;22;45493;-86
2023/11/10 00:12:55;;;;;;;;;2.00;2.00;;;;;12.17;81.85;99382.81;6254088;22;44894;-86
2023/11/10 00:15:24;;;;;;;;;2.00;1.00;;;;;12.00;81.87;99387.50;6228567;22;44864;-87
2023/11/10 00:17:50;;;;;;;;;0.67;0.67;;;;;11.97;81.72;99379.53;6256358;22;45384;-85
2023/11/10 00:21:03;;;;;;;;;1.00;1.00;;;;;12.23;81.54;99381.84;6226348;22;47380;-86
2023/11/10 00:23:36;;;;;;;;;0.33;0.33;;;;;11.94;81.74;99390.25;6228328;22;44893;-87
2023/11/10 00:26:01;;;;;;;;;6.00;3.00;;;;;11.94;81.93;99392.94;6258473;22;44884;-86
2023/11/10 00:28:26;;;;;;;;;2.00;1.00;;;;;11.93;81.83;99388.47;6254590;22;44899;-87
2023/11/10 00:30:52;;;;;;;;;3.00;2.00;;;;;11.95;81.92;99384.88;6228303;22;47164;-87
2023/11/10 00:33:17;;;;;;;;;1.00;1.00;;;;;11.96;81.82;99392.00;6254583;22;44899;-86
2023/11/10 00:35:42;;;;;;;;;6.00;2.67;;;;;11.92;82.00;99384.94;6257888;22;44871;-86
2023/11/10 00:38:08;;;;;;;;;1.33;1.33;;;;;11.92;81.79;99392.94;6257398;22;44803;-85
2023/11/10 00:40:34;;;;;;;;;1.33;1.33;;;;;11.87;81.90;99388.53;6254841;22;47155;-86
2023/11/10 00:43:00;;;;;;;;;2.00;0.00;;;;;11.92;81.34;99392.06;6257629;22;44869;-86
2023/11/10 00:45:25;;;;;;;;;2.00;2.00;;;;;11.88;81.28;99390.31;6256101;22;45248;-86
2023/11/10 00:47:50;;;;;;;;;2.00;2.00;;;;;11.84;80.99;99391.25;6230120;22;44841;-85
2023/11/10 00:50:16;;;;;;;;;1.00;1.00;;;;;11.79;81.56;99386.84;6229531;22;46815;-85
2023/11/10 00:52:41;;;;;;;;;2.67;1.00;;;;;11.76;81.41;99375.34;6254645;22;45319;-86
2023/11/10 00:55:07;;;;;;;;;1.00;0.00;;;;;11.80;80.94;99375.28;6256999;22;44760;-86
2023/11/10 00:57:33;;;;;;;;;2.00;1.00;;;;;11.84;81.02;99377.94;6229113;22;44859;-86
2023/11/10 00:59:59;;;;;;;;;1.33;1.33;;;;;11.74;80.79;99383.38;6229698;22;47080;-85
2023/11/10 01:02:24;;;;;;;;;1.33;1.33;;;;;11.69;80.88;99373.66;6228371;22;44740;-86
2023/11/10 01:04:50;;;;;;;;;0.00;0.00;;;;;11.70;81.04;99373.66;6201559;22;44855;-85
2023/11/10 01:07:16;;;;;;;;;0.00;0.00;;;;;11.70;80.99;99368.31;6254575;22;44898;-86
2023/11/10 01:09:42;;;;;;;;;4.00;1.00;;;;;11.72;81.03;99377.19;6227544;22;46622;-86
2023/11/10 01:12:08;;;;;;;;;1.00;1.00;;;;;11.69;80.99;99363.88;6256577;22;45225;-85
2023/11/10 01:14:34;;;;;;;;;1.00;1.00;;;;;11.71;81.10;99369.19;6229905;22;44802;-86
2023/11/10 01:16:59;;;;;;;;;2.00;1.33;;;;;11.71;81.25;99372.72;6229580;22;44767;-86
2023/11/10 01:19:24;;;;;;;;;0.33;0.33;;;;;11.68;81.07;99366.59;6257467;22;45451;-86
2023/11/10 01:21:50;;;;;;;;;2.00;2.00;;;;;11.71;81.21;99372.72;6256350;22;44846;-85
2023/11/10 01:24:16;;;;;;;;;0.00;0.00;;;;;11.68;81.35;99369.25;6229533;22;44859;-86
2023/11/10 01:26:42;;;;;;;;;1.00;1.00;;;;;11.70;81.35;99364.78;6255172;22;45403;-85
2023/11/10 01:29:07;;;;;;;;;1.00;1.00;;;;;11.68;81.25;99366.59;6256523;22;45640;-86
2023/11/10 01:31:32;;;;;;;;;0.00;0.00;;;;;11.61;81.40;99355.09;6254776;22;44868;-85
2023/11/10 01:33:58;;;;;;;;;0.00;0.00;;;;;11.65;81.62;99366.63;6258047;22;44860;-85
2023/11/10 01:36:24;;;;;;;;;1.00;1.00;;;;;11.74;81.68;99366.50;6255422;22;44746;-85
2023/11/10 01:38:50;;;;;;;;;2.33;0.67;;;;;11.56;81.50;99367.63;6228456;22;47192;-85
2023/11/10 01:41:20;;;;;;;;;1.00;1.00;;;;;11.70;81.71;99376.31;6229402;22;45290;-86
2023/11/10 01:43:45;;;;;;;;;2.00;1.00;;;;;11.60;81.56;99375.53;6257263;22;44841;-87
2023/11/10 01:46:59;;;;;;;;;1.00;1.00;;;;;11.84;81.02;99369.94;6230576;22;44823;-85
2023/11/10 01:49:27;;;;;;;;;0.67;0.00;;;;;11.62;81.35;99378.19;6236741;22;45597;-86
2023/11/10 01:51:54;;;;;;;;;1.00;1.00;;;;;11.60;81.63;99374.66;6227979;22;44849;-84
2023/11/10 01:54:24;;;;;;;;;0.67;0.67;;;;;11.70;81.64;99386.09;6230109;22;44717;-86
2023/11/10 01:56:52;;;;;;;;;1.67;1.33;;;;;11.56;81.71;99388.91;6256990;22;44864;-86
2023/11/10 01:59:22;;;;;;;;;1.00;1.00;;;;;11.62;82.05;99383.50;6256644;22;45343;-85
2023/11/10 02:01:48;;;;;;;;;1.00;1.00;;;;;11.46;82.07;99390.78;6255681;22;44855;-85
2023/11/10 02:04:16;;;;;;;;;0.00;0.00;;;;;11.37;82.16;99386.47;6255902;22;44984;-86
2023/11/10 02:06:44;;;;;;;;;2.33;0.67;;;;;11.44;82.61;99389.06;6230660;22;44947;-86
2023/11/10 02:09:10;;;;;;;;;1.00;1.00;;;;;11.36;82.52;99398.00;6229986;22;47158;-86
2023/11/10 02:11:38;;;;;;;;;0.67;0.67;;;;;11.39;82.75;99392.66;6254963;22;44924;-86
2023/11/10 02:14:06;;;;;;;;;5.33;1.33;;;;;11.42;82.97;99389.06;6258197;22;44853;-86
2023/11/10 02:16:32;;;;;;;;;1.00;1.00;;;;;11.35;82.78;99385.59;6257188;22;44821;-86
2023/11/10 02:18:58;;;;;;;;;2.33;2.00;;;;;11.35;82.84;99382.03;6256531;22;45466;-86
2023/11/10 02:21:24;;;;;;;;;3.33;2.00;;;;;11.30;83.11;99376.78;6229313;22;45372;-87
2023/11/10 02:23:56;;;;;;;;;0.33;0.33;;;;;11.47;83.23;99389.00;6229284;22;44881;-84
2023/11/10 02:26:22;;;;;;;;;1.33;1.00;;;;;11.29;83.15;99380.34;6228223;22;44852;-86
2023/11/10 02:28:47;;;;;;;;;1.00;1.00;;;;;11.31;82.98;99375.88;6229747;22;46818;-85
2023/11/10 02:31:13;;;;;;;;;2.67;1.00;;;;;11.30;83.27;99379.44;6256036;22;45440;-86
2023/11/10 02:33:39;;;;;;;;;2.67;1.33;;;;;11.27;83.26;99371.50;6257843;22;44702;-85
2023/11/10 02:36:07;;;;;;;;;0.33;0.33;;;;;11.22;83.13;99362.66;6253717;22;44888;-85
2023/11/10 02:38:37;;;;;;;;;3.33;2.33;;;;;11.21;83.56;99367.13;6204546;22;47092;-84
2023/11/10 02:41:04;;;;;;;;;3.00;1.33;;;;;11.18;83.38;99366.25;6257792;22;45258;-85
2023/11/10 02:43:33;;;;;;;;;0.67;0.00;;;;;11.20;83.58;99361.81;6230259;22;44745;-87
2023/11/10 02:45:59;;;;;;;;;4.67;0.33;;;;;11.20;83.31;99354.69;6257686;22;44827;-86
2023/11/10 02:48:24;;;;;;;;;3.00;2.00;;;;;11.25;83.25;99357.31;6229002;22;46882;-86
2023/11/10 02:50:50;;;;;;;;;5.33;1.33;;;;;11.25;83.26;99351.09;6229281;22;44730;-87
2023/11/10 02:53:16;;;;;;;;;1.00;1.00;;;;;11.19;83.01;99352.06;6231345;22;44832;-87
2023/11/10 02:55:42;;;;;;;;;1.67;0.33;;;;;11.15;82.94;99351.22;6256054;22;44911;-87
2023/11/10 02:58:09;;;;;;;;;1.00;1.00;;;;;11.29;83.45;99347.50;6229751;22;52552;-86
2023/11/10 03:00:34;;;;;;;;;2.00;1.00;;;;;11.11;83.22;99348.59;6228720;22;44868;-87
2023/11/10 03:02:59;;;;;;;;;3.00;3.00;;;;;11.08;83.14;99345.97;6257881;22;45139;-87
2023/11/10 03:05:25;;;;;;;;;2.00;1.00;;;;;11.10;83.36;99368.13;6229247;22;44884;-86
2023/11/10 03:07:51;;;;;;;;;3.00;1.33;;;;;11.04;83.07;99369.06;6227928;22;47044;-87
2023/11/10 03:10:16;;;;;;;;;0.00;0.00;;;;;11.09;82.99;99374.31;6255912;22;44740;-87
2023/11/10 03:12:42;;;;;;;;;1.33;0.67;;;;;11.10;83.38;99378.75;6254329;22;45147;-86
2023/11/10 03:15:08;;;;;;;;;3.67;2.00;;;;;11.18;83.45;99390.22;6229211;22;44833;-86
2023/11/10 03:17:34;;;;;;;;;1.00;1.00;;;;;11.14;83.10;99381.38;6254933;22;47270;-86
2023/11/10 03:20:01;;;;;;;;;2.33;1.00;;;;;11.13;82.84;99384.94;6254434;22;44880;-87
2023/11/10 03:22:26;;;;;;;;;3.00;3.00;;;;;11.05;82.84;99378.81;6229502;22;44763;-86
2023/11/10 03:24:58;;;;;;;;;3.00;1.00;;;;;11.33;83.03;99382.06;6256021;22;44778;-87
2023/11/10 03:27:24;;;;;;;;;1.00;1.00;;;;;11.15;82.99;99393.78;6256557;22;45025;-87
2023/11/10 03:29:51;;;;;;;;;2.00;1.00;;;;;11.25;83.21;99393.69;6256176;22;44818;-87
2023/11/10 03:32:18;;;;;;;;;2.67;2.67;;;;;11.12;83.00;99379.63;6228033;22;44747;-86
2023/11/10 03:34:44;;;;;;;;;1.00;0.67;;;;;11.07;83.20;99368.13;6230296;22;44889;-87
2023/11/10 03:37:11;;;;;;;;;2.00;2.00;;;;;11.11;83.12;99369.88;6228310;22;46985;-87
2023/11/10 03:39:37;;;;;;;;;2.33;2.33;;;;;11.05;83.15;99370.84;6228562;22;45401;-87
2023/11/10 03:42:03;;;;;;;;;2.00;0.67;;;;;11.14;83.10;99375.19;6255269;22;44902;-86
2023/11/10 03:44:29;;;;;;;;;0.33;0.33;;;;;11.08;82.86;99364.59;6227226;22;44880;-87
2023/11/10 03:46:55;;;;;;;;;0.00;0.00;;;;;10.99;82.89;99355.81;6227394;22;46902;-87
2023/11/10 03:49:21;;;;;;;;;0.67;0.67;;;;;10.98;82.68;99358.47;6230082;22;44771;-87
2023/11/10 03:51:47;;;;;;;;;1.00;1.00;;;;;10.98;82.82;99369.13;6255327;22;44865;-87
2023/11/10 03:54:13;;;;;;;;;1.67;1.00;;;;;10.98;82.87;99375.31;6254967;22;45365;-86
2023/11/10 03:56:39;;;;;;;;;0.67;0.67;;;;;10.99;83.10;99365.59;6228952;22;47307;-85
2023/11/10 03:59:07;;;;;;;;;1.00;0.67;;;;;10.99;nan;99361.13;6255576;22;45014;-86
2023/11/10 04:01:33;;;;;;;;;1.67;1.00;;;;;10.94;82.85;99357.63;6229854;22;44889;-86
2023/11/10 04:04:01;;;;;;;;;2.67;1.67;;;;;10.95;82.91;99362.06;6255587;22;44950;-85
2023/11/10 04:07:04;;;;;;;;;6.67;3.00;;;;;11.24;82.55;99358.22;6257154;22;45899;-86
2023/11/10 04:09:33;;;;;;;;;0.33;0.33;;;;;11.09;82.98;99355.69;6256922;22;44725;-85
2023/11/10 04:11:58;;;;;;;;;3.00;2.00;;;;;10.94;82.79;99356.75;6255203;22;44897;-86
2023/11/10 04:14:24;;;;;;;;;1.67;0.33;;;;;10.90;82.76;99350.56;6229313;22;44947;-86
2023/11/10 04:16:49;;;;;;;;;1.00;1.00;;;;;10.93;82.83;99350.56;6254786;22;47557;-86
2023/11/10 04:19:14;;;;;;;;;0.33;0.00;;;;;10.86;82.81;99353.28;6228499;22;47467;-87
2023/11/10 04:21:40;;;;;;;;;0.67;0.67;;;;;10.92;83.09;99351.44;6229128;22;44826;-85
2023/11/10 04:24:06;;;;;;;;;0.00;0.00;;;;;10.92;83.04;99348.78;6228636;22;44770;-86
2023/11/10 04:26:31;;;;;;;;;0.00;0.00;;;;;10.86;83.19;99339.97;6256313;22;44930;-85
2023/11/10 04:28:58;;;;;;;;;2.00;1.00;;;;;10.91;83.08;99347.03;6257412;22;44718;-87
2023/11/10 04:31:24;;;;;;;;;1.00;1.00;;;;;10.92;83.16;99348.78;6229107;22;44829;-86
2023/11/10 04:33:49;;;;;;;;;1.67;1.67;;;;;10.88;83.10;99338.19;6255682;22;44733;-85
2023/11/10 04:36:14;;;;;;;;;0.00;0.00;;;;;10.82;83.29;99326.69;6255141;22;44920;-86
2023/11/10 04:38:47;;;;;;;;;0.33;0.33;;;;;10.91;83.29;99333.72;6228418;22;44740;-86
2023/11/10 04:41:15;;;;;;;;;1.00;1.00;;;;;10.86;83.15;99326.69;6228825;22;44950;-85
2023/11/10 04:43:41;;;;;;;;;2.00;1.00;;;;;10.80;83.38;99319.63;6255561;22;44833;-87
2023/11/10 04:46:06;;;;;;;;;1.67;1.67;;;;;10.84;83.23;99317.84;6227778;22;47093;-86
2023/11/10 04:48:32;;;;;;;;;1.33;1.00;;;;;10.97;83.13;99327.47;6254334;22;44901;-86
2023/11/10 04:50:57;;;;;;;;;1.00;1.00;;;;;10.94;83.05;99324.81;6230117;22;44702;-84
2023/11/10 04:53:23;;;;;;;;;0.00;0.00;;;;;11.05;82.87;99338.91;6228622;22;44842;-85
2023/11/10 04:55:48;;;;;;;;;0.00;0.00;;;;;11.07;83.01;99330.88;6229210;22;47416;-86
2023/11/10 04:58:14;;;;;;;;;1.33;0.00;;;;;11.02;82.91;99312.31;6229327;22;45599;-86
2023/11/10 05:00:40;;;;;;;;;2.00;2.00;;;;;11.09;82.63;99313.13;6257391;22;44764;-86
2023/11/10 05:03:06;;;;;;;;;1.67;1.00;;;;;10.99;82.69;99289.31;6253598;22;45288;-87
2023/11/10 05:05:32;;;;;;;;;1.00;1.00;;;;;11.01;82.59;99322.09;6229315;22;47274;-87
2023/11/10 05:07:59;;;;;;;;;1.00;0.67;;;;;10.97;82.66;99317.69;6256339;22;45083;-86
2023/11/10 05:10:28;;;;;;;;;1.67;1.67;;;;;11.04;82.68;99320.28;6256506;22;44815;-86
2023/11/10 05:12:54;;;;;;;;;0.00;0.00;;;;;11.04;82.94;99305.22;6257491;22;44780;-86
2023/11/10 05:15:19;;;;;;;;;3.00;1.00;;;;;11.12;82.85;99334.41;6255877;22;45016;-86
2023/11/10 05:17:45;;;;;;;;;2.00;2.00;;;;;11.10;82.47;99312.25;6229682;22;45296;-85
2023/11/10 05:20:13;;;;;;;;;1.00;0.00;;;;;11.14;82.57;99312.19;6257707;22;44747;-86
2023/11/10 05:22:41;;;;;;;;;1.33;1.33;;;;;11.22;82.71;99314.75;6258139;22;44720;-87
2023/11/10 05:25:10;;;;;;;;;1.67;1.67;;;;;11.30;82.42;99312.91;6228411;22;47060;-85
2023/11/10 05:27:36;;;;;;;;;2.00;1.00;;;;;11.14;82.38;99312.19;6228504;22;45366;-86
2023/11/10 05:30:02;;;;;;;;;2.00;2.00;;;;;11.09;82.04;99302.50;6256363;22;44776;-85
2023/11/10 05:32:28;;;;;;;;;1.67;1.67;;;;;11.10;82.30;99307.81;6228886;22;44943;-85
2023/11/10 05:34:54;;;;;;;;;3.00;1.33;;;;;11.09;82.29;99302.50;6256482;22;45437;-83
2023/11/10 05:37:29;;;;;;;;;1.00;1.00;;;;;11.27;82.33;99291.66;6228721;22;45034;-86
2023/11/10 05:39:54;;;;;;;;;3.00;1.00;;;;;11.08;82.37;99300.75;6228421;22;44769;-85
2023/11/10 05:42:24;;;;;;;;;0.33;0.33;;;;;11.20;82.34;99280.19;6253148;22;45393;-86
2023/11/10 05:44:50;;;;;;;;;3.00;3.00;;;;;10.96;82.22;99293.78;6255363;22;46868;-86
2023/11/10 05:47:16;;;;;;;;;3.67;3.67;;;;;10.96;82.33;99294.66;6256386;22;44836;-86
2023/11/10 05:49:41;;;;;;;;;2.00;2.00;;;;;10.97;82.37;99309.72;6229062;22;44837;-86
2023/11/10 05:52:09;;;;;;;;;2.00;2.00;;;;;11.05;82.24;99306.09;6253641;22;45227;-86
2023/11/10 05:54:37;;;;;;;;;2.33;2.00;;;;;10.91;82.62;99304.47;6228467;22;45370;-86
2023/11/10 05:57:02;;;;;;;;;0.67;0.00;;;;;10.93;82.46;99300.00;6255390;22;45321;-85
2023/11/10 05:59:30;;;;;;;;;1.33;0.00;;;;;10.98;82.59;99282.22;6229539;22;44787;-85
2023/11/10 06:01:56;;;;;;;;;0.33;0.33;;;;;10.93;82.28;99294.69;6230252;22;45008;-86
2023/11/10 06:04:23;;;;;;;;;1.33;1.00;;;;;10.93;82.53;99294.69;6230467;22;47168;-86
2023/11/10 06:06:52;;;;;;;;;2.67;2.67;;;;;11.09;82.48;99292.75;6229491;22;44741;-85
2023/11/10 06:09:22;;;;;;;;;1.33;1.33;;;;;10.91;82.47;99296.50;6229742;22;44856;-86
2023/11/10 06:11:48;;;;;;;;;1.00;1.00;;;;;10.87;82.51;99300.06;6254435;22;44919;-87
2023/11/10 06:19:25;;;;;;;;;0.67;0.67;;;;;10.94;82.36;99296.44;6212955;22;44852;-86
2023/11/10 06:21:52;;;;;;;;;1.00;1.00;;;;;10.82;82.21;99301.88;6200426;22;44984;-86
2023/11/10 06:24:24;;;;;;;;;0.00;0.00;;;;;10.83;82.31;99309.00;6198460;22;47012;-86
2023/11/10 06:26:49;;;;;;;;;2.00;0.00;;;;;10.78;82.50;99297.50;6199329;22;44854;-86
2023/11/10 06:29:15;;;;;;;;;7.33;1.67;;;;;10.75;82.59;99286.91;6200356;22;44816;-87
2023/11/10 06:31:41;;;;;;;;;2.33;1.00;;;;;10.85;82.60;99307.19;6200730;22;44979;-86
2023/11/10 06:34:06;;;;;;;;;1.67;0.00;;;;;10.85;82.52;99293.91;6227375;22;45187;-86
2023/11/10 06:36:32;;;;;;;;;3.00;1.00;;;;;10.90;82.60;99302.69;6172997;23;44860;-86
2023/11/10 06:38:57;;;;;;;;;1.00;1.00;;;;;10.90;82.05;99300.03;6166717;23;44911;-86
2023/11/10 06:41:24;;;;;;;;;3.00;3.00;;;;;10.88;82.47;99299.16;6164786;23;44858;-86
2023/11/10 06:43:49;;;;;;;;;1.67;1.67;;;;;10.83;82.27;99295.69;6139654;23;46954;-85
2023/11/10 06:46:22;;;;;;;;;1.33;1.33;;;;;11.01;82.59;99306.13;6164616;23;44915;-86
2023/11/10 06:48:51;;;;;;;;;1.00;1.00;;;;;10.88;82.49;99309.81;6193330;22;44829;-87
2023/11/10 06:51:18;;;;;;;;;1.00;1.00;;;;;10.84;82.44;99307.19;6193920;23;44838;-87
2023/11/10 06:53:45;;;;;;;;;1.33;1.33;;;;;10.92;82.66;99316.84;6193234;23;46407;-85
2023/11/10 06:56:11;;;;;;;;;2.00;0.67;;;;;10.81;82.88;99295.69;6139975;23;45413;-86
2023/11/10 06:58:40;;;;;;;;;1.00;1.00;;;;;11.05;82.77;99306.97;6194573;22;44927;-88
2023/11/10 07:01:09;;;;;;;;;0.00;0.00;;;;;10.89;82.66;99311.59;6166907;22;45290;-88
2023/11/10 07:03:35;;;;;;;;;0.00;0.00;;;;;10.96;82.75;99312.38;6146144;23;46834;-86
2023/11/10 07:06:02;;;;;;;;;0.33;0.33;;;;;10.94;82.12;99312.41;6163554;23;46010;-86
2023/11/10 07:08:28;;;;;;;;;2.67;1.00;;;;;11.06;82.31;99306.06;6164907;23;44917;-86
2023/11/10 07:10:58;;;;;;;;;1.00;1.00;;;;;11.10;82.37;99304.25;6164803;23;44895;-85
2023/11/10 07:13:23;;;;;;;;;3.00;1.33;;;;;11.02;82.45;99286.59;6194324;23;45026;-86
2023/11/10 07:15:49;;;;;;;;;2.00;1.00;;;;;11.10;82.19;99301.59;6165316;23;45090;-86
2023/11/10 07:18:17;;;;;;;;;3.33;1.00;;;;;11.13;82.16;99294.47;6206545;22;44728;-86
2023/11/10 07:20:44;;;;;;;;;1.67;0.00;;;;;11.12;82.24;99308.66;6223839;22;45266;-87
2023/11/10 07:23:14;;;;;;;;;2.00;2.00;;;;;11.17;82.32;99287.34;6199639;22;46951;-87
2023/11/10 07:25:56;;;;;;;;;2.33;1.67;;;;;11.18;82.02;99292.63;6218729;22;44953;-86
2023/11/10 07:28:22;;;;;;;;;3.00;1.33;;;;;11.23;81.60;99294.34;6196424;22;44883;-87
2023/11/10 07:30:47;;;;;;;;;1.00;1.00;;;;;11.27;82.06;99293.41;6195905;22;44804;-86
2023/11/10 07:33:13;;;;;;;;;2.33;1.00;;;;;11.32;81.66;99295.13;6197379;22;47177;-86
2023/11/10 07:35:38;;;;;;;;;1.67;1.67;;;;;11.38;81.88;99295.03;6201294;22;45327;-86
2023/11/10 07:38:05;;;;;;;;;3.33;3.33;;;;;11.46;81.48;99286.97;6199907;22;45358;-85
2023/11/10 07:40:33;;;;;;;;;6.00;1.33;;;;;11.39;80.92;99280.84;6228368;22;44738;-86
2023/11/10 07:42:59;;;;;;;;;1.67;1.00;;;;;11.50;80.94;99290.47;6226378;22;45309;-86
2023/11/10 07:45:28;;;;;;;;;2.67;2.67;;;;;11.68;81.25;99298.22;6199898;22;44942;-86
2023/11/10 07:47:57;;;;;;;;;1.00;1.00;;;;;11.74;81.41;99292.81;6226952;22;45153;-86
2023/11/10 07:50:24;;;;;;;;;1.67;1.00;;;;;11.78;81.02;99299.84;6227669;22;45287;-87
2023/11/10 07:52:52;;;;;;;;;2.33;2.00;;;;;11.65;81.20;99282.28;6199349;22;47088;-85
2023/11/10 07:55:18;;;;;;;;;6.67;3.00;;;;;11.67;80.37;99269.81;6199799;22;45332;-85
2023/11/10 08:00:48;;;;;;;;;1.33;1.33;;;;;11.98;80.06;99283.63;6090017;23;45529;-84
2023/11/10 08:03:33;;;;;;;;;1.00;1.00;;;;;11.95;79.87;99259.66;6048714;23;45542;-85
2023/11/10 08:06:49;;;;;;;;;;;;;;;;;;;;;
2023/11/10 08:09:35;;;;;;;;;2.00;1.00;;;;;12.46;79.35;99272.16;6063276;23;68163;-84
2023/11/10 08:12:31;;;;;;;;;0.00;0.00;;;;;12.77;77.55;99292.97;6047608;23;44827;-84
2023/11/10 08:15:47;;;;;;;;;2.00;1.00;;;;;12.77;77.29;99271.66;6053524;23;45336;-86
2023/11/10 08:58:30;;;;;;;;;3.33;3.33;;;;;12.57;76.61;99288.88;6220080;22;46923;-89
2023/11/10 09:01:04;;;;;;;;;2.33;1.00;;;;;12.76;77.07;99285.88;6234088;22;45345;-89
2023/11/10 09:03:34;;;;;;;;;2.00;1.00;;;;;12.48;76.97;99275.72;6229679;22;45355;-86
2023/11/10 09:06:02;;;;;;;;;7.00;3.67;;;;;12.61;77.17;99261.25;6235778;22;47164;-89
2023/11/10 09:11:13;;;;;;;;;0.33;0.33;;;;;12.66;76.67;99261.16;6280274;22;46277;-86
2023/11/10 09:21:50;;;;;;;;;4.00;4.00;;;;;12.91;76.48;99256.25;6247505;22;45059;-87
2023/11/10 09:24:29;;;;;;;;;3.00;1.33;;;;;13.19;76.33;99301.09;6263249;22;44824;-87
2023/11/10 09:53:36;;;;;;;;;2.33;1.00;;;;;13.89;74.95;99273.81;6186328;22;45830;-88
2023/11/10 09:56:02;;;;;;;;;3.67;1.00;;;;;13.77;74.95;99251.78;6257239;22;45430;-89
2023/11/10 09:58:32;;;;;;;;;2.00;2.00;;;;;14.06;74.92;99268.06;6239938;22;45295;-88
2023/11/10 10:01:19;;;;;;;;;2.67;2.67;;;;;14.49;74.55;99280.38;6239302;22;45198;-90
2023/11/10 10:03:45;;;;;;;;;1.00;1.00;;;;;14.42;74.01;99276.97;6267114;22;44841;-88
2023/11/10 10:08:47;;;;;;;;;3.00;3.00;;;;;14.55;73.55;99264.19;6212247;22;46917;-89
2023/11/10 10:11:29;;;;;;;;;3.33;3.33;;;;;14.75;72.21;99247.63;6273412;22;45417;-87
2023/11/10 10:17:39;;;;;;;;;2.67;2.00;;;;;15.06;72.67;99261.03;6188730;22;46048;-89
2023/11/10 10:28:34;;;;;;;;;2.00;2.00;;;;;15.71;71.94;99256.47;6226731;22;45468;-87
2023/11/10 10:37:10;;;;;;;;;5.00;3.00;;;;;16.01;71.08;99227.84;6261006;22;44985;-87
2023/11/10 11:49:44;;;;;;;;;2.33;2.33;;;;;17.02;63.23;99142.94;6185479;22;46543;-85
2023/11/10 11:58:42;;;;;;;;;4.33;2.67;;;;;16.96;63.94;99125.25;6176544;22;46571;-88
2023/11/10 12:35:18;;;;;;;;;4.67;3.67;;;;;16.13;65.94;99042.38;6234447;22;45822;-85
2023/11/10 12:37:45;;;;;;;;;1.67;1.67;;;;;15.91;65.17;99049.44;6267144;22;46606;-85
2023/11/10 12:40:17;;;;;;;;;9.00;4.00;;;;;15.96;64.64;99039.44;6233526;22;45181;-86
2023/11/10 12:42:49;;;;;;;;;3.00;3.00;;;;;16.28;65.49;99070.47;6228322;22;44829;-86
2023/11/10 12:45:17;;;;;;;;;1.00;1.00;;;;;16.25;65.23;99051.81;6228179;22;44785;-85
2023/11/10 12:47:54;;;;;;;;;3.00;3.00;;;;;16.11;65.56;99030.84;6233659;22;46822;-87
2023/11/10 12:50:38;;;;;;;;;4.00;2.00;;;;;16.30;65.04;99033.75;6207239;22;45404;-87
2023/11/10 12:53:04;;;;;;;;;3.00;3.00;;;;;15.91;64.80;99044.94;6227961;22;45371;-84
2023/11/10 12:55:29;;;;;;;;;5.00;3.00;;;;;15.82;64.61;99029.22;6224971;22;45660;-84
2023/11/10 12:58:19;;;;;;;;;3.67;2.00;;;;;16.11;65.77;99057.66;6221686;22;47471;-86
2023/11/10 13:00:57;;;;;;;;;;;;;;;;;;;;;
2023/11/10 13:06:59;;;;;;;;;2.00;2.00;;;;;15.94;69.11;99052.03;6227618;22;44808;-87
2023/11/10 13:09:33;;;;;;;;;2.00;1.00;;;;;15.69;69.31;99028.69;6228812;22;47031;-86
2023/11/10 13:12:25;;;;;;;;;1.00;1.00;;;;;16.09;69.59;99046.09;6231782;22;44987;-89
2023/11/10 13:15:36;;;;;;;;;1.67;1.67;;;;;15.82;69.90;98997.03;6203718;22;45380;-89
2023/11/10 13:18:14;;;;;;;;;4.00;3.33;;;;;15.73;80.39;99038.41;6091497;23;44960;-88
2023/11/10 13:20:41;;;;;;;;;3.33;1.00;;;;;15.75;77.59;99044.63;6112425;23;47814;-87
2023/11/10 13:23:13;;;;;;;;;9.00;2.00;;;;;15.44;77.32;99017.09;6136353;23;44959;-89
2023/11/10 13:34:18;;;;;;;;;4.00;3.00;;;;;15.68;76.04;99035.00;6250289;22;44965;-87
2023/11/10 13:36:45;;;;;;;;;2.00;1.00;;;;;15.47;77.03;99043.75;6222807;22;45372;-88
2023/11/10 13:39:13;;;;;;;;;4.00;1.00;;;;;15.51;77.82;99034.69;6225333;22;45263;-88
2023/11/10 13:41:42;;;;;;;;;4.00;2.00;;;;;15.55;77.98;99039.00;6225114;22;46205;-87
2023/11/10 13:48:07;;;;;;;;;3.33;2.33;;;;;15.90;76.83;99035.16;6229912;22;44769;-88
2023/11/10 13:51:05;;;;;;;;;2.33;1.00;;;;;15.69;77.21;98999.22;6230086;22;45175;-89
2023/11/10 13:54:11;;;;;;;;;3.67;2.33;;;;;15.71;76.83;99016.13;6204046;22;45601;-88
2023/11/10 13:56:39;;;;;;;;;4.00;2.00;;;;;15.46;77.60;99008.06;6199657;22;45099;-87
2023/11/10 13:59:06;;;;;;;;;2.33;2.33;;;;;15.54;77.56;99029.25;6227037;22;45268;-88
2023/11/10 14:02:07;;;;;;;;;;;;;;;;;;;;;
2023/11/10 14:04:50;;;;;;;;;4.00;4.00;;;;;15.52;77.57;99009.66;6220209;22;74491;-86
2023/11/10 14:07:22;;;;;;;;;1.33;1.33;;;;;15.63;78.52;99023.56;6225285;22;44767;-89
2023/11/10 14:10:04;;;;;;;;;3.00;1.33;;;;;15.77;78.53;99005.25;6196503;22;45130;-88
2023/11/10 14:12:31;;;;;;;;;1.00;1.00;;;;;15.88;78.06;99012.03;6206816;22;44907;-89
2023/11/10 14:14:58;;;;;;;;;3.00;1.00;;;;;15.73;77.28;98967.88;6206535;22;45136;-89
2023/11/10 14:17:24;;;;;;;;;1.00;1.00;;;;;15.78;76.75;98990.03;6203733;22;44762;-89
2023/11/10 14:19:49;;;;;;;;;4.33;2.00;;;;;15.71;76.51;98994.69;6227527;22;44720;-87
2023/11/10 14:22:15;;;;;;;;;3.00;1.33;;;;;15.56;76.53;98985.38;6228828;22;44865;-89
2023/11/10 14:24:40;;;;;;;;;2.00;2.00;;;;;15.30;75.87;98961.28;6229249;22;45428;-87
2023/11/10 14:27:06;;;;;;;;;2.00;2.00;;;;;15.30;75.77;98975.56;6201651;22;45317;-89
2023/11/10 14:29:41;;;;;;;;;3.50;1.00;;;;;15.31;75.79;98947.84;6227056;22;44781;-88
2023/11/10 14:32:21;;;;;;;;;2.50;2.50;;;;;15.47;76.34;98976.78;6222273;22;45335;-89
2023/11/10 14:35:02;;;;;;;;;2.00;1.00;;;;;15.60;76.16;98991.53;6198979;22;46970;-88
2023/11/10 14:38:08;;;;;;;;;1.00;1.00;;;;;15.60;74.35;98994.19;6195434;22;45250;-88
2023/11/10 14:40:38;;;;;;;;;2.00;2.00;;;;;15.25;74.70;98979.31;6200158;22;44917;-88
2023/11/10 14:43:07;;;;;;;;;0.00;0.00;;;;;15.16;74.83;98951.03;6199624;22;45069;-88
2023/11/10 14:45:37;;;;;;;;;2.00;1.00;;;;;15.12;74.43;98952.94;6225202;22;45255;-87
2023/11/10 14:48:05;;;;;;;;;0.00;0.00;;;;;15.38;75.24;98970.81;6197840;22;45583;-88
2023/11/10 14:50:37;;;;;;;;;6.00;3.00;;;;;15.21;75.84;98951.78;6225547;22;45353;-88
2023/11/10 14:53:26;;;;;;;;;1.00;0.75;;;;;15.13;76.01;98943.13;6199836;22;44814;-88
2023/11/10 14:55:56;;;;;;;;;2.00;2.00;;;;;15.25;76.20;98964.13;6197642;22;46752;-88
2023/11/10 14:58:21;;;;;;;;;1.00;0.50;;;;;15.02;75.86;98955.97;6225482;22;45210;-88
2023/11/10 15:00:48;;;;;;;;;2.33;1.33;;;;;15.33;75.59;98988.84;6202761;22;44772;-89
2023/11/10 15:03:29;;;;;;;;;2.33;1.00;;;;;15.27;76.18;98977.44;6226855;22;45357;-87
2023/11/10 15:06:08;;;;;;;;;3.00;1.00;;;;;15.22;75.73;98958.88;6206611;22;46974;-90
2023/11/10 15:08:35;;;;;;;;;0.00;0.00;;;;;15.07;75.84;98932.59;6203826;22;44711;-89
2023/11/10 15:11:01;;;;;;;;;1.00;1.00;;;;;15.15;75.64;98970.72;6206003;22;44972;-89
2023/11/10 15:14:00;;;;;;;;;;;;;;;;;;;;;
2023/11/10 15:16:34;;;;;;;;;1.33;0.00;;;;;15.07;75.84;98946.88;6223890;22;75215;-87
2023/11/10 15:19:05;;;;;;;;;2.00;1.00;;;;;15.06;76.57;98952.28;6198907;22;45412;-88
2023/11/10 15:21:37;;;;;;;;;1.67;1.33;;;;;15.29;77.26;98992.56;6197429;22;45390;-88
2023/11/10 15:24:07;;;;;;;;;1.00;1.00;;;;;15.15;79.50;98990.34;6225811;22;44861;-89
2023/11/10 15:26:37;;;;;;;;;3.67;2.00;;;;;14.87;80.26;98990.34;6199694;22;46882;-90
2023/11/10 15:29:25;;;;;;;;;3.00;2.00;;;;;15.05;80.83;99006.72;6203247;22;44710;-90
2023/11/10 15:32:04;;;;;;;;;2.00;2.00;;;;;14.81;81.93;98990.53;6174012;22;45421;-88
2023/11/10 15:34:50;;;;;;;;;3.33;1.00;;;;;14.86;82.59;99001.09;6196648;22;44829;-89
2023/11/10 15:41:08;;;;;;;;;5.00;3.00;;;;;14.72;82.83;99030.94;6231178;22;44677;-89
2023/11/10 15:43:39;;;;;;;;;2.00;2.00;;;;;14.24;100.00;99005.59;6228763;22;44812;-87
2023/11/10 15:46:08;;;;;;;;;1.00;1.00;;;;;14.30;100.00;99033.94;6201055;22;44864;-89
2023/11/10 15:48:37;;;;;;;;;1.67;1.67;;;;;14.10;100.00;99051.44;6196108;22;46699;-86